Terminal Aerodrome Forecast
Issued by NWS

Home | Current Version | Previous Version | Text Only | Print | Product List | Glossary On
Versions: 1 2 3 4 5 6 7 8 9 10 11 12 13 14 15 16 17
000
FTUS44 KLZK 242300
TAFLIT
TAF
KLIT 242330Z 2500/2524 10005KT P6SM TSRA BKN006CB OVC035
      TEMPO 2500/2504 2SM TSRA BR BKN004CB
     FM250500 17005KT 5SM BR VCTS OVC015CB WS020/22045KT
     FM251400 22015G25KT P6SM SCT015
     FM251800 25010G25KT P6SM SKC=

USA.gov is the U.S. government's official web portal to all federal, state and local government web resources and services.